Harvey Challenger — WDI2331 — position and weather

sailwx.info

Track history (hours):
 
Tides and Currents Weather Stations Pressure Air Temp Water Temp Dewpoint Dewpoint Depression Visibility Wind Speed Wind Dir Waves Ship Positions

Harvey Challenger

Owner: Harvey Gulf International Marine, LLC, New Orleans, LA. More information available from US FCC via Universal Licensing System and Coast Guard Vessel Documentation Center.

Last reported at 2018-Jun-03 07:57 UTC. Time now 2018-Jun-21 18:11 UTC.
Position N 29°06' W 093°44'.
Warning: this ship's position is 18 days out of date.

Length 61 m; draft 4 m.

Type: Cargo ship. MMSI: 338341000.

Date/timePositionNaut miles runAvg speedWind from/ knotsBaromVisibWave heightAir tempDewpointWater temp
2018-Jun-03 07:57N 29°06' W 093°44'4 8.3
2018-Jun-03 07:30N 29°06' W 093°49'4 8.3
2018-Jun-03 07:00N 29°07' W 093°54'4 8.3
2018-Jun-03 06:30N 29°07' W 093°58'4 8.4
2018-Jun-03 06:00N 29°08' W 094°03'4 8.4
2018-Jun-03 05:29N 29°10' W 094°07'4 8.3
2018-Jun-03 04:57N 29°11' W 094°12'4 8.2
2018-Jun-03 04:28N 29°12' W 094°16'4 8.2
2018-Jun-03 03:58N 29°13' W 094°21'4 8.3
2018-Jun-03 03:30N 29°14' W 094°25'4 8.2
2018-Jun-03 02:59N 29°16' W 094°30'4 8.4
2018-Jun-03 02:29N 29°18' W 094°34'4 8.2
2018-Jun-03 02:00N 29°20' W 094°38'511.0
2018-Jun-03 01:30N 29°21' W 094°44'5 9.7
2018-Jun-03 01:00N 29°24' W 094°49'5 9.5
2018-Jun-03 00:29N 29°28' W 094°51'5 9.9
2018-Jun-02 23:57N 29°33' W 094°54'4 9.7
2018-Jun-02 23:30N 29°36' W 094°57'5 9.3
2018-Jun-02 23:00N 29°41' W 094°59'11 2.3
2018-Jun-02 17:58N 29°45' W 095°11'1 0.1
2018-Jun-02 13:23N 29°45' W 095°10'1 3.3
2018-Jun-02 12:59N 29°44' W 095°09'4 6.4
2018-Jun-02 12:26N 29°46' W 095°05'3 7.3
2018-Jun-02 12:00N 29°44' W 095°02'3 6.9
2018-Jun-02 11:30N 29°42' W 094°59'4 7.6
2018-Jun-02 11:00N 29°38' W 094°58'4 8.7
2018-Jun-02 10:30N 29°34' W 094°55'4 7.8
2018-Jun-02 10:00N 29°31' W 094°53'  
2018-May-31 00:56N 29°06' W 093°50'510.5
2018-May-31 00:30N 29°07' W 093°55'910.2
2018-May-30 23:36N 29°10' W 094°05'110.5
2018-May-30 23:30N 29°10' W 094°06'610.4
2018-May-30 22:56N 29°13' W 094°12'6 9.8
2018-May-30 22:18N 29°15' W 094°19'5 9.5
2018-May-30 21:46N 29°16' W 094°24'19 9.9
2018-May-30 19:54N 29°21' W 094°45'6 9.6
2018-May-30 19:14N 29°25' W 094°50'2 9.4
2018-May-30 19:00N 29°27' W 094°51'5 9.5
2018-May-30 18:30N 29°32' W 094°53'5 9.3
2018-May-30 18:00N 29°35' W 094°56'5 9.4
2018-May-30 17:30N 29°40' W 094°58'4 7.6
2018-May-30 17:00N 29°43' W 095°01'4 6.8
2018-May-30 16:27N 29°45' W 095°04'4 6.5
2018-May-30 15:47N 29°44' W 095°09'1 0.2
2018-May-30 09:05N 29°45' W 095°10'0 1.7
2018-May-30 09:00N 29°45' W 095°10'1 2.5
2018-May-30 08:26N 29°44' W 095°09'2 4.7
2018-May-30 08:00N 29°45' W 095°07'3 4.0
2018-May-30 07:14N 29°44' W 095°03'2 5.9
2018-May-30 06:58N 29°43' W 095°01'3 5.5
2018-May-30 06:30N 29°42' W 094°59'3 6.2
2018-May-30 06:00N 29°39' W 094°58'3 6.6
2018-May-30 05:30N 29°36' W 094°57'4 7.0
2018-May-30 05:00N 29°33' W 094°54'4 7.2
2018-May-30 04:28N 29°29' W 094°52'3 7.2
2018-May-30 04:00N 29°26' W 094°50'4 7.3
2018-May-30 03:30N 29°23' W 094°49'3 6.4
2018-May-30 03:00N 29°21' W 094°46'3 6.0
2018-May-30 02:30N 29°21' W 094°43'9 5.8
2018-May-30 00:53N 29°17' W 094°33'2 6.2
2018-May-30 00:30N 29°15' W 094°31'3 6.3
2018-May-30 00:00N 29°14' W 094°28'4 6.5
2018-May-29 23:25N 29°11' W 094°25'6 7.3
2018-May-29 22:34N 29°10' W 094°17'1 7.9
2018-May-29 22:27N 29°10' W 094°16'4 7.9
2018-May-29 22:00N 29°09' W 094°13'4 7.8
2018-May-29 21:29N 29°08' W 094°08'  
Track history (hours):
 
Tides and Currents Weather Stations Pressure Air Temp Water Temp Dewpoint Dewpoint Depression Visibility Wind Speed Wind Dir Waves Ship Positions

Harvey Challenger

Owner: Harvey Gulf International Marine, LLC, New Orleans, LA. More information available from US FCC via Universal Licensing System and Coast Guard Vessel Documentation Center.

Last reported at 2018-Jun-03 07:57 UTC. Time now 2018-Jun-21 18:11 UTC.
Position N 29°06' W 093°44'.
Warning: this ship's position is 18 days out of date.

Length 61 m; draft 4 m.

Type: Cargo ship. MMSI: 338341000.

Date/timePositionNaut miles runAvg speedWind from/ knotsBaromVisibWave heightAir tempDewpointWater temp
2018-Jun-03 07:57N 29°06' W 093°44'4 8.3
2018-Jun-03 07:30N 29°06' W 093°49'4 8.3
2018-Jun-03 07:00N 29°07' W 093°54'4 8.3
2018-Jun-03 06:30N 29°07' W 093°58'4 8.4
2018-Jun-03 06:00N 29°08' W 094°03'4 8.4
2018-Jun-03 05:29N 29°10' W 094°07'4 8.3
2018-Jun-03 04:57N 29°11' W 094°12'4 8.2
2018-Jun-03 04:28N 29°12' W 094°16'4 8.2
2018-Jun-03 03:58N 29°13' W 094°21'4 8.3
2018-Jun-03 03:30N 29°14' W 094°25'4 8.2
2018-Jun-03 02:59N 29°16' W 094°30'4 8.4
2018-Jun-03 02:29N 29°18' W 094°34'4 8.2
2018-Jun-03 02:00N 29°20' W 094°38'511.0
2018-Jun-03 01:30N 29°21' W 094°44'5 9.7
2018-Jun-03 01:00N 29°24' W 094°49'5 9.5
2018-Jun-03 00:29N 29°28' W 094°51'5 9.9
2018-Jun-02 23:57N 29°33' W 094°54'4 9.7
2018-Jun-02 23:30N 29°36' W 094°57'5 9.3
2018-Jun-02 23:00N 29°41' W 094°59'11 2.3
2018-Jun-02 17:58N 29°45' W 095°11'1 0.1
2018-Jun-02 13:23N 29°45' W 095°10'1 3.3
2018-Jun-02 12:59N 29°44' W 095°09'4 6.4
2018-Jun-02 12:26N 29°46' W 095°05'3 7.3
2018-Jun-02 12:00N 29°44' W 095°02'3 6.9
2018-Jun-02 11:30N 29°42' W 094°59'4 7.6
2018-Jun-02 11:00N 29°38' W 094°58'4 8.7
2018-Jun-02 10:30N 29°34' W 094°55'4 7.8
2018-Jun-02 10:00N 29°31' W 094°53'  
2018-May-31 00:56N 29°06' W 093°50'510.5
2018-May-31 00:30N 29°07' W 093°55'910.2
2018-May-30 23:36N 29°10' W 094°05'110.5
2018-May-30 23:30N 29°10' W 094°06'610.4
2018-May-30 22:56N 29°13' W 094°12'6 9.8
2018-May-30 22:18N 29°15' W 094°19'5 9.5
2018-May-30 21:46N 29°16' W 094°24'19 9.9
2018-May-30 19:54N 29°21' W 094°45'6 9.6
2018-May-30 19:14N 29°25' W 094°50'2 9.4
2018-May-30 19:00N 29°27' W 094°51'5 9.5
2018-May-30 18:30N 29°32' W 094°53'5 9.3
2018-May-30 18:00N 29°35' W 094°56'5 9.4
2018-May-30 17:30N 29°40' W 094°58'4 7.6
2018-May-30 17:00N 29°43' W 095°01'4 6.8
2018-May-30 16:27N 29°45' W 095°04'4 6.5
2018-May-30 15:47N 29°44' W 095°09'1 0.2
2018-May-30 09:05N 29°45' W 095°10'0 1.7
2018-May-30 09:00N 29°45' W 095°10'1 2.5
2018-May-30 08:26N 29°44' W 095°09'2 4.7
2018-May-30 08:00N 29°45' W 095°07'3 4.0
2018-May-30 07:14N 29°44' W 095°03'2 5.9
2018-May-30 06:58N 29°43' W 095°01'3 5.5
2018-May-30 06:30N 29°42' W 094°59'3 6.2
2018-May-30 06:00N 29°39' W 094°58'3 6.6
2018-May-30 05:30N 29°36' W 094°57'4 7.0
2018-May-30 05:00N 29°33' W 094°54'4 7.2
2018-May-30 04:28N 29°29' W 094°52'3 7.2
2018-May-30 04:00N 29°26' W 094°50'4 7.3
2018-May-30 03:30N 29°23' W 094°49'3 6.4
2018-May-30 03:00N 29°21' W 094°46'3 6.0
2018-May-30 02:30N 29°21' W 094°43'9 5.8
2018-May-30 00:53N 29°17' W 094°33'2 6.2
2018-May-30 00:30N 29°15' W 094°31'3 6.3
2018-May-30 00:00N 29°14' W 094°28'4 6.5
2018-May-29 23:25N 29°11' W 094°25'6 7.3
2018-May-29 22:34N 29°10' W 094°17'1 7.9
2018-May-29 22:27N 29°10' W 094°16'4 7.9
2018-May-29 22:00N 29°09' W 094°13'4 7.8
2018-May-29 21:29N 29°08' W 094°08'  

Dump ship's entire track history